createdAt,value
2018-02-24T00:00:34.033Z,9.70
2018-02-24T00:03:02.886Z,13.60
2018-02-24T00:05:32.035Z,13.10
2018-02-24T00:08:01.648Z,15.37
2018-02-24T00:10:30.641Z,12.68
2018-02-24T00:12:59.625Z,13.40
2018-02-24T00:15:28.485Z,14.97
2018-02-24T00:17:57.379Z,13.57
2018-02-24T00:20:26.280Z,14.83
2018-02-24T00:22:55.353Z,13.17
2018-02-24T00:25:24.331Z,14.25
2018-02-24T00:27:53.205Z,13.03
2018-02-24T00:30:22.036Z,12.52
2018-02-24T00:32:51.731Z,11.15
2018-02-24T00:35:20.634Z,12.20
2018-02-24T00:37:50.281Z,11.02
2018-02-24T00:40:19.842Z,11.75
2018-02-24T00:42:49.528Z,12.43
2018-02-24T00:45:18.433Z,11.85
2018-02-24T00:47:47.418Z,12.83
2018-02-24T00:50:16.561Z,12.40
2018-02-24T00:52:45.456Z,11.48
2018-02-24T00:55:14.497Z,13.37
2018-02-24T00:57:43.698Z,15.07
2018-02-24T01:00:12.957Z,12.97
2018-02-24T01:02:42.047Z,15.20
2018-02-24T01:05:10.962Z,12.98
2018-02-24T01:07:39.954Z,13.83
2018-02-24T01:10:09.228Z,19.03
2018-02-24T01:12:38.896Z,13.38
2018-02-24T01:15:08.543Z,12.95
2018-02-24T01:17:38.184Z,12.20
2018-02-24T01:20:07.116Z,13.10
2018-02-24T01:22:36.153Z,12.27
2018-02-24T01:25:05.141Z,19.33
2018-02-24T01:27:33.930Z,15.50
2018-02-24T01:30:03.701Z,15.35
2018-02-24T01:32:33.033Z,17.62
2018-02-24T01:35:02.244Z,16.90
2018-02-24T01:37:31.073Z,16.37
2018-02-24T01:40:00.061Z,14.98
2018-02-24T01:42:28.921Z,13.97
2018-02-24T01:44:58.729Z,15.00
2018-02-24T01:47:27.613Z,14.15
2018-02-24T01:49:56.661Z,14.05
2018-02-24T01:52:25.496Z,16.33
2018-02-24T01:54:54.385Z,15.13
2018-02-24T01:57:23.929Z,13.13
2018-02-24T01:59:53.025Z,13.07
2018-02-24T02:02:21.845Z,13.13
2018-02-24T02:04:50.978Z,15.48
2018-02-24T02:07:20.509Z,16.83
2018-02-24T02:09:49.671Z,14.27
2018-02-24T02:12:18.525Z,16.95
2018-02-24T02:14:47.624Z,14.98
2018-02-24T02:17:16.747Z,13.10
2018-02-24T02:19:46.632Z,20.25
2018-02-24T02:22:15.427Z,16.08
2018-02-24T02:24:44.333Z,16.08
2018-02-24T02:27:13.930Z,13.33
2018-02-24T02:29:42.916Z,13.95
2018-02-24T02:32:11.944Z,15.80
2018-02-24T02:34:40.849Z,17.58
2018-02-24T02:37:09.667Z,16.37
2018-02-24T02:39:39.418Z,14.02
2018-02-24T02:42:09.084Z,19.00
2018-02-24T02:44:38.088Z,19.30
2018-02-24T02:47:07.149Z,17.70
2018-02-24T02:49:36.065Z,15.38
2018-02-24T02:52:04.909Z,12.57
2018-02-24T02:54:34.033Z,15.15
2018-02-24T02:57:03.097Z,17.62
2018-02-24T02:59:32.077Z,19.75
2018-02-24T03:02:00.954Z,24.20
2018-02-24T03:04:29.786Z,17.17
2018-02-24T03:06:58.806Z,24.57
2018-02-24T03:09:27.725Z,19.70
2018-02-24T03:11:57.004Z,16.70
2018-02-24T03:14:26.644Z,20.85
2018-02-24T03:16:55.786Z,21.00
2018-02-24T03:19:24.565Z,19.30
2018-02-24T03:21:53.513Z,20.17
2018-02-24T03:24:23.093Z,16.70
2018-02-24T03:26:52.013Z,24.23
2018-02-24T03:29:21.692Z,17.07
2018-02-24T03:31:50.827Z,15.80
2018-02-24T03:34:19.949Z,16.23
2018-02-24T03:36:48.935Z,18.55
2018-02-24T03:39:18.537Z,19.08
2018-02-24T03:41:48.268Z,22.92
2018-02-24T03:44:17.050Z,23.85
2018-02-24T03:46:45.937Z,29.58
2018-02-24T03:49:15.473Z,34.92
2018-02-24T03:51:44.848Z,21.67
2018-02-24T03:54:13.783Z,26.75
2018-02-24T03:56:42.738Z,16.98
2018-02-24T03:59:11.543Z,23.33
2018-02-24T04:01:40.440Z,20.25
2018-02-24T04:04:09.213Z,20.05
2018-02-24T04:06:38.080Z,19.20
2018-02-24T04:09:07.155Z,19.37
2018-02-24T04:11:37.013Z,28.08
2018-02-24T04:14:05.965Z,22.20
2018-02-24T04:16:35.082Z,35.08
2018-02-24T04:19:04.368Z,30.27
2018-02-24T04:21:33.324Z,30.62
2018-02-24T04:24:02.630Z,21.95
2018-02-24T04:26:31.408Z,24.70
2018-02-24T04:29:00.658Z,27.65
2018-02-24T04:31:29.516Z,31.27
2018-02-24T04:33:58.393Z,29.92
2018-02-24T04:36:28.193Z,27.90
2018-02-24T04:38:57.658Z,22.15
2018-02-24T04:41:26.604Z,26.60
2018-02-24T04:43:55.511Z,31.73
2018-02-24T04:46:25.245Z,39.95
2018-02-24T04:48:54.860Z,29.80
2018-02-24T04:51:24.496Z,30.45
2018-02-24T04:53:53.401Z,47.90
2018-02-24T04:56:22.271Z,25.83
2018-02-24T04:58:51.500Z,18.17
2018-02-24T05:01:20.415Z,19.98
2018-02-24T05:03:49.330Z,17.67
2018-02-24T05:06:18.681Z,31.83
2018-02-24T05:08:47.995Z,22.83
2018-02-24T05:11:17.770Z,37.58
2018-02-24T05:13:46.630Z,30.73
2018-02-24T05:16:16.566Z,31.87
2018-02-24T05:18:45.515Z,37.67
2018-02-24T05:21:14.406Z,41.50
2018-02-24T05:23:44.129Z,37.10
2018-02-24T05:26:13.316Z,36.65
2018-02-24T05:28:43.557Z,42.58
2018-02-24T05:31:13.573Z,33.63
2018-02-24T05:33:42.406Z,28.05
2018-02-24T05:36:11.437Z,27.73
2018-02-24T05:38:40.370Z,30.02
2018-02-24T05:41:09.588Z,27.25
2018-02-24T05:43:38.739Z,42.90
2018-02-24T05:46:08.372Z,22.05
2018-02-24T05:48:37.287Z,26.75
2018-02-24T05:51:06.332Z,30.25
2018-02-24T05:53:36.148Z,35.83
2018-02-24T05:56:05.061Z,32.75
2018-02-24T05:58:34.154Z,35.65
2018-02-24T06:01:03.269Z,39.75
2018-02-24T06:03:32.205Z,65.90
2018-02-24T06:06:02.117Z,41.20
2018-02-24T06:08:31.036Z,46.65
2018-02-24T06:10:59.922Z,38.45
2018-02-24T06:13:28.849Z,57.65
2018-02-24T06:15:57.796Z,34.33
2018-02-24T06:18:26.750Z,33.70
2018-02-24T06:20:55.667Z,32.58
2018-02-24T06:23:24.909Z,38.70
2018-02-24T06:25:54.024Z,40.83
2018-02-24T06:28:24.013Z,44.95
2018-02-24T06:30:52.891Z,42.17
2018-02-24T06:33:21.922Z,37.13
2018-02-24T06:35:50.981Z,54.50
2018-02-24T06:38:20.255Z,45.92
2018-02-24T06:40:49.307Z,44.08
2018-02-24T06:43:18.538Z,27.77
2018-02-24T06:45:48.456Z,27.83
2018-02-24T06:48:17.502Z,42.53
2018-02-24T06:50:46.446Z,41.28
2018-02-24T06:53:15.366Z,87.70
2018-02-24T06:55:44.313Z,110.30
2018-02-24T06:58:13.272Z,67.50
2018-02-24T07:00:42.281Z,41.63
2018-02-24T07:03:12.395Z,157.20
2018-02-24T07:05:41.360Z,117.70
2018-02-24T07:08:10.140Z,34.30
2018-02-24T07:10:39.622Z,109.12
2018-02-24T07:13:08.518Z,138.70
2018-02-24T07:15:38.061Z,92.70
2018-02-24T07:18:06.954Z,111.97
2018-02-24T07:20:36.003Z,65.97
2018-02-24T07:23:05.009Z,103.30
2018-02-24T07:25:35.144Z,79.83
2018-02-24T07:28:05.339Z,105.40
2018-02-24T07:30:35.071Z,50.90
2018-02-24T07:33:03.984Z,81.00
2018-02-24T07:35:33.169Z,139.10
2018-02-24T07:38:02.130Z,209.23
2018-02-24T07:40:31.027Z,116.87
2018-02-24T07:43:00.740Z,66.20
2018-02-24T07:45:29.679Z,33.80
2018-02-24T07:47:58.917Z,38.77
2018-02-24T07:50:27.945Z,104.03
2018-02-24T07:52:56.923Z,42.63
2018-02-24T07:55:25.942Z,45.40
2018-02-24T07:57:54.868Z,51.50
2018-02-24T08:00:24.659Z,67.77
2018-02-24T08:02:53.632Z,34.57
2018-02-24T08:05:23.502Z,44.63
2018-02-24T08:07:52.429Z,54.43
2018-02-24T08:10:22.194Z,42.37
2018-02-24T08:12:51.417Z,51.67
2018-02-24T08:15:20.523Z,31.37
2018-02-24T08:17:49.505Z,34.50
2018-02-24T08:20:19.532Z,45.07
2018-02-24T08:22:48.552Z,38.73
2018-02-24T08:25:18.458Z,44.50
2018-02-24T08:27:48.645Z,44.27
2018-02-24T08:30:18.634Z,49.73
2018-02-24T08:32:47.470Z,52.60
2018-02-24T08:35:17.060Z,38.83
2018-02-24T08:37:46.693Z,47.60
2018-02-24T08:40:15.623Z,50.43
2018-02-24T08:42:45.545Z,43.23
2018-02-24T08:45:14.417Z,63.83
2018-02-24T08:47:43.305Z,49.30
2018-02-24T08:50:12.167Z,60.27
2018-02-24T08:52:41.957Z,48.77
2018-02-24T08:55:10.884Z,52.17
2018-02-24T08:57:39.857Z,30.80
2018-02-24T09:00:08.833Z,39.17
2018-02-24T09:02:38.702Z,51.50
2018-02-24T09:05:07.557Z,40.90
2018-02-24T09:07:36.751Z,52.57
2018-02-24T09:10:05.645Z,31.57
2018-02-24T09:12:34.485Z,34.60
2018-02-24T09:15:03.529Z,30.60
2018-02-24T09:17:32.374Z,40.87
2018-02-24T09:20:02.180Z,36.40
2018-02-24T09:22:31.030Z,62.53
2018-02-24T09:25:00.653Z,53.57
2018-02-24T09:27:29.734Z,55.57
2018-02-24T09:29:58.567Z,56.90
2018-02-24T09:32:27.499Z,46.33
2018-02-24T09:34:56.358Z,54.77
2018-02-24T09:37:26.142Z,45.53
2018-02-24T09:39:54.940Z,77.17
2018-02-24T09:42:24.043Z,40.40
2018-02-24T09:44:52.945Z,44.37
2018-02-24T09:47:21.879Z,49.90
2018-02-24T09:49:51.839Z,33.10
2018-02-24T09:52:20.674Z,49.60
2018-02-24T09:54:49.590Z,54.97
2018-02-24T09:57:18.497Z,40.53
2018-02-24T09:59:47.492Z,46.53
2018-02-24T10:02:17.425Z,37.93
2018-02-24T10:04:46.185Z,38.90
2018-02-24T10:07:15.128Z,43.70
2018-02-24T10:09:44.089Z,39.93
2018-02-24T10:12:13.745Z,32.27
2018-02-24T10:14:42.765Z,34.77
2018-02-24T10:17:11.640Z,47.07
2018-02-24T10:19:41.554Z,44.30
2018-02-24T10:22:10.391Z,44.43
2018-02-24T10:24:39.199Z,44.93
2018-02-24T10:27:08.021Z,47.40
2018-02-24T10:29:37.645Z,32.03
2018-02-24T10:32:07.376Z,51.00
2018-02-24T10:34:36.284Z,36.70
2018-02-24T10:37:05.314Z,49.83
2018-02-24T10:39:34.528Z,42.67
2018-02-24T10:42:04.201Z,28.53
2018-02-24T10:44:33.045Z,33.80
2018-02-24T10:47:01.969Z,46.50
2018-02-24T10:49:31.098Z,28.57
2018-02-24T10:52:00.010Z,42.10
2018-02-24T10:54:28.975Z,37.63
2018-02-24T10:56:58.638Z,29.80
2018-02-24T10:59:27.473Z,28.37
2018-02-24T11:01:56.337Z,55.87
2018-02-24T11:04:25.532Z,35.47
2018-02-24T11:06:54.706Z,56.90
2018-02-24T11:09:23.634Z,35.77
2018-02-24T11:11:52.676Z,60.67
2018-02-24T11:14:22.303Z,23.77
2018-02-24T11:16:51.437Z,36.03
2018-02-24T11:19:21.124Z,65.73
2018-02-24T11:21:49.925Z,36.67
2018-02-24T11:24:18.826Z,29.10
2018-02-24T11:26:47.728Z,31.63
2018-02-24T11:29:16.632Z,40.73
2018-02-24T11:31:45.942Z,47.67
2018-02-24T11:34:15.614Z,53.53
2018-02-24T11:36:45.299Z,50.30
2018-02-24T11:39:15.294Z,48.83
2018-02-24T11:41:45.132Z,36.30
2018-02-24T11:44:14.092Z,41.40
2018-02-24T11:46:43.772Z,31.60
2018-02-24T11:49:13.599Z,34.17
2018-02-24T11:51:42.530Z,47.07
2018-02-24T11:54:11.601Z,58.93
2018-02-24T11:56:40.507Z,57.00
2018-02-24T11:59:09.574Z,37.07
2018-02-24T12:01:39.441Z,69.87
2018-02-24T12:04:09.193Z,48.87
2018-02-24T12:09:13.920Z,32.00
2018-02-24T12:11:42.929Z,46.13
2018-02-24T12:14:11.813Z,47.97
2018-02-24T12:16:41.007Z,60.03
2018-02-24T12:19:10.122Z,66.17
2018-02-24T12:21:39.664Z,46.20
2018-02-24T12:24:08.966Z,58.20
2018-02-24T12:26:37.855Z,44.53
2018-02-24T12:29:06.763Z,57.23
2018-02-24T12:31:35.650Z,49.27
2018-02-24T12:34:05.364Z,35.00
2018-02-24T12:36:34.267Z,34.83
2018-02-24T12:39:04.008Z,29.60
2018-02-24T12:41:33.630Z,34.23
2018-02-24T12:44:02.434Z,51.63
2018-02-24T12:46:31.409Z,37.53
2018-02-24T12:49:01.120Z,31.37
2018-02-24T12:51:30.740Z,35.10
2018-02-24T12:53:59.703Z,42.50
2018-02-24T12:56:29.537Z,37.50
2018-02-24T12:58:58.449Z,28.10
2018-02-24T13:01:27.446Z,27.73
2018-02-24T13:03:56.323Z,31.10
2018-02-24T13:06:25.370Z,29.00
2018-02-24T13:08:54.347Z,37.23
2018-02-24T13:11:23.207Z,32.83
2018-02-24T13:13:52.132Z,37.43
2018-02-24T13:16:21.215Z,26.67
2018-02-24T13:18:50.040Z,29.80
2018-02-24T13:21:19.308Z,28.20
2018-02-24T13:23:48.428Z,34.50
2018-02-24T13:26:18.105Z,35.87
2018-02-24T13:28:47.189Z,31.07
2018-02-24T13:31:16.099Z,34.93
2018-02-24T13:33:45.014Z,37.03
2018-02-24T13:36:14.949Z,39.03
2018-02-24T13:38:44.041Z,31.37
2018-02-24T13:41:13.793Z,33.33
2018-02-24T13:43:42.853Z,36.67
2018-02-24T13:46:12.459Z,33.70
2018-02-24T13:48:42.097Z,41.30
2018-02-24T13:51:11.805Z,51.40
2018-02-24T13:53:40.668Z,33.33
2018-02-24T13:56:10.384Z,31.00
2018-02-24T13:58:39.405Z,31.73
2018-02-24T14:01:10.546Z,31.17
2018-02-24T14:03:39.514Z,43.57
2018-02-24T14:06:08.809Z,46.07
2018-02-24T14:08:37.713Z,39.17
2018-02-24T14:11:06.736Z,40.07
2018-02-24T14:13:35.702Z,42.10
2018-02-24T14:16:04.567Z,33.47
2018-02-24T14:18:34.733Z,31.03
2018-02-24T14:21:03.534Z,46.13
2018-02-24T14:23:32.453Z,36.67
2018-02-24T14:26:02.211Z,41.30
2018-02-24T14:28:31.329Z,40.47
2018-02-24T14:31:00.154Z,49.70
2018-02-24T14:33:30.065Z,34.50
2018-02-24T14:35:59.772Z,38.43
2018-02-24T14:38:28.557Z,33.13
2018-02-24T14:40:57.479Z,38.80
2018-02-24T14:43:26.328Z,42.50
2018-02-24T14:45:56.108Z,40.00
2018-02-24T14:48:25.069Z,37.23
2018-02-24T14:50:54.087Z,39.23
2018-02-24T14:53:23.147Z,32.83
2018-02-24T14:55:52.769Z,37.10
2018-02-24T14:58:22.379Z,47.73
2018-02-24T15:00:51.312Z,43.77
2018-02-24T15:03:20.213Z,45.40
2018-02-24T15:05:49.651Z,39.50
2018-02-24T15:08:19.462Z,49.47
2018-02-24T15:10:48.396Z,52.50
2018-02-24T15:13:18.423Z,45.37
2018-02-24T15:15:47.509Z,43.10
2018-02-24T15:18:16.575Z,44.27
2018-02-24T15:20:45.804Z,43.53
2018-02-24T15:23:14.760Z,52.67
2018-02-24T15:25:44.463Z,44.03
2018-02-24T15:28:13.423Z,51.10
2018-02-24T15:30:43.287Z,60.07
2018-02-24T15:33:12.143Z,51.27
2018-02-24T15:35:41.094Z,54.83
2018-02-24T15:38:10.108Z,63.57
2018-02-24T15:40:41.325Z,92.30
2018-02-24T15:43:13.118Z,127.20
2018-02-24T15:45:42.249Z,106.60
2018-02-24T15:48:11.456Z,117.47
2018-02-24T15:50:40.384Z,147.23
2018-02-24T15:53:09.232Z,148.33
2018-02-24T15:55:38.240Z,174.00
2018-02-24T15:58:07.149Z,142.27
2018-02-24T16:00:36.048Z,143.20
2018-02-24T16:03:04.836Z,138.67
2018-02-24T16:05:34.535Z,118.10
2018-02-24T16:08:03.564Z,117.60
2018-02-24T16:10:33.137Z,131.67
2018-02-24T16:13:02.206Z,110.20
2018-02-24T16:15:31.126Z,96.17
2018-02-24T16:17:59.956Z,97.10
2018-02-24T16:20:28.868Z,87.47
2018-02-24T16:22:58.844Z,88.87
2018-02-24T16:25:27.812Z,80.83
2018-02-24T16:27:56.826Z,85.90
2018-02-24T16:30:25.997Z,90.00
2018-02-24T16:32:54.995Z,97.67
2018-02-24T16:35:23.852Z,95.27
2018-02-24T16:37:52.720Z,106.47
2018-02-24T16:40:21.669Z,107.97
2018-02-24T16:42:50.537Z,96.97
2018-02-24T16:45:19.602Z,109.67
2018-02-24T16:47:49.224Z,102.30
2018-02-24T16:50:18.892Z,108.30
2018-02-24T16:52:47.829Z,114.77
2018-02-24T16:55:17.949Z,114.07
2018-02-24T16:57:47.110Z,118.97
2018-02-24T17:00:16.701Z,125.40
2018-02-24T17:02:45.533Z,132.07
2018-02-24T17:05:15.281Z,133.43
2018-02-24T17:07:44.935Z,150.43
2018-02-24T17:10:14.853Z,132.90
2018-02-24T17:12:43.796Z,137.87
2018-02-24T17:15:12.805Z,145.27
2018-02-24T17:17:41.761Z,137.17
2018-02-24T17:20:10.815Z,154.10
2018-02-24T17:22:39.869Z,117.43
2018-02-24T17:25:08.937Z,137.77
2018-02-24T17:27:38.951Z,152.87
2018-02-24T17:30:07.869Z,163.63
2018-02-24T17:32:36.750Z,152.47
2018-02-24T17:35:05.995Z,161.40
2018-02-24T17:37:36.158Z,163.83
2018-02-24T17:40:05.237Z,230.33
2018-02-24T17:42:34.220Z,186.37
2018-02-24T17:45:03.968Z,183.60
2018-02-24T17:47:32.824Z,182.13
2018-02-24T17:52:37.123Z,211.77
2018-02-24T17:55:06.869Z,211.20
2018-02-24T17:57:35.830Z,201.20
2018-02-24T18:00:04.820Z,156.67
2018-02-24T18:02:33.683Z,136.77
2018-02-24T18:05:02.562Z,143.57
2018-02-24T18:07:31.454Z,132.87
2018-02-24T18:10:00.353Z,116.07
2018-02-24T18:12:29.256Z,107.30
2018-02-24T18:14:59.132Z,123.17
2018-02-24T18:17:28.196Z,182.17
2018-02-24T18:32:57.620Z,155.93
2018-02-24T18:35:26.927Z,156.50
2018-02-24T18:37:56.463Z,156.03
2018-02-24T18:40:25.530Z,152.23
2018-02-24T18:42:55.349Z,181.17
2018-02-24T18:45:24.517Z,150.15
2018-02-24T18:47:53.608Z,158.63
2018-02-24T18:50:22.614Z,141.90
2018-02-24T18:52:52.225Z,119.63
2018-02-24T18:55:21.313Z,121.73
2018-02-24T18:57:51.076Z,141.93
2018-02-24T19:00:21.560Z,135.13
2018-02-24T19:02:51.029Z,152.90
2018-02-24T19:05:20.358Z,137.90
2018-02-24T19:07:49.998Z,118.43
2018-02-24T19:10:19.569Z,112.87
2018-02-24T19:12:49.987Z,115.07
2018-02-24T19:15:19.637Z,119.33
2018-02-24T19:17:49.166Z,126.13
2018-02-24T19:20:18.865Z,134.30
2018-02-24T19:22:48.447Z,129.47
2018-02-24T19:25:18.025Z,121.13
2018-02-24T19:27:47.680Z,128.53
2018-02-24T19:30:18.156Z,128.30
2018-02-24T19:32:47.521Z,154.07
2018-02-24T19:35:16.808Z,121.63
2018-02-24T19:37:47.427Z,102.90
2018-02-24T19:40:17.941Z,88.93
2018-02-24T19:42:48.011Z,81.28
2018-02-24T19:45:17.389Z,81.30
2018-02-24T19:47:46.793Z,81.27
2018-02-24T19:50:16.278Z,83.77
2018-02-24T19:52:46.553Z,82.30
2018-02-24T19:55:15.884Z,80.43
2018-02-24T19:57:46.199Z,78.63
2018-02-24T20:00:15.871Z,78.10
2018-02-24T20:02:45.210Z,74.30
2018-02-24T20:05:14.792Z,77.03
2018-02-24T20:07:45.064Z,70.30
2018-02-24T20:10:14.660Z,54.40
2018-02-24T20:12:44.989Z,54.80
2018-02-24T20:15:14.255Z,55.27
2018-02-24T20:17:44.475Z,54.23
2018-02-24T20:20:14.871Z,57.00
2018-02-24T20:22:45.074Z,74.87
2018-02-24T20:25:14.738Z,71.77
2018-02-24T20:27:44.555Z,85.03
2018-02-24T20:30:14.028Z,89.22
2018-02-24T20:32:43.380Z,74.47
2018-02-24T20:35:13.178Z,61.70
2018-02-24T20:37:42.718Z,56.53
2018-02-24T20:40:12.169Z,57.73
2018-02-24T20:42:41.540Z,75.00
2018-02-24T20:45:11.111Z,59.90
2018-02-24T20:47:40.960Z,53.40
2018-02-24T20:50:10.618Z,54.07
2018-02-24T20:52:40.309Z,47.07
2018-02-24T20:55:09.767Z,45.00
2018-02-24T20:57:40.263Z,44.10
2018-02-24T21:00:09.723Z,43.25
2018-02-24T21:02:39.047Z,42.13
2018-02-24T21:05:08.252Z,40.47
2018-02-24T21:07:37.460Z,45.45
2018-02-24T21:10:06.949Z,43.63
2018-02-24T21:12:36.693Z,48.00
2018-02-24T21:15:06.156Z,43.55
2018-02-24T21:17:35.742Z,42.65
2018-02-24T21:20:05.503Z,39.88
2018-02-24T21:22:34.837Z,39.57
2018-02-24T21:25:04.252Z,35.10
2018-02-24T21:27:33.258Z,33.10
2018-02-24T21:30:02.404Z,32.30
2018-02-24T21:32:31.296Z,31.87
2018-02-24T21:35:00.974Z,30.73
2018-02-24T21:37:29.917Z,24.63
2018-02-24T21:39:58.771Z,15.45
2018-02-24T21:42:27.661Z,15.05
2018-02-24T21:44:57.484Z,13.98
2018-02-24T21:47:26.297Z,14.60
2018-02-24T21:49:56.755Z,15.13
2018-02-24T21:52:25.640Z,17.87
2018-02-24T21:54:55.091Z,23.60
2018-02-24T21:57:25.295Z,17.97
2018-02-24T21:59:54.189Z,14.60
2018-02-24T22:02:24.070Z,15.60
2018-02-24T22:04:52.953Z,15.88
2018-02-24T22:07:21.781Z,15.00
2018-02-24T22:09:50.638Z,12.73
2018-02-24T22:12:20.574Z,14.02
2018-02-24T22:14:50.415Z,16.27
2018-02-24T22:17:20.127Z,15.07
2018-02-24T22:19:49.702Z,14.65
2018-02-24T22:22:18.680Z,11.80
2018-02-24T22:24:47.589Z,12.40
2018-02-24T22:27:16.531Z,12.93
2018-02-24T22:29:46.610Z,12.63
2018-02-24T22:32:15.430Z,12.70
2018-02-24T22:34:45.040Z,12.73
2018-02-24T22:37:14.727Z,13.80
2018-02-24T22:39:44.542Z,15.25
2018-02-24T22:42:13.452Z,14.87
2018-02-24T22:44:42.986Z,14.25
2018-02-24T22:47:11.824Z,14.10
2018-02-24T22:49:41.437Z,15.68
2018-02-24T22:52:10.563Z,13.50
2018-02-24T22:57:15.630Z,15.40
2018-02-24T22:59:45.362Z,12.45
2018-02-24T23:02:15.034Z,13.68
2018-02-24T23:04:45.494Z,15.18
2018-02-24T23:07:15.192Z,12.45
2018-02-24T23:09:44.825Z,12.73
2018-02-24T23:12:13.694Z,15.02
2018-02-24T23:14:42.537Z,16.85
2018-02-24T23:17:11.462Z,14.55
2018-02-24T23:19:40.435Z,15.10
2018-02-24T23:22:10.121Z,15.00
2018-02-24T23:24:39.945Z,16.10
2018-02-24T23:27:08.805Z,18.35
2018-02-24T23:29:37.776Z,18.85
2018-02-24T23:32:07.525Z,16.60
2018-02-24T23:34:36.425Z,17.17
2018-02-24T23:37:05.573Z,17.73
2018-02-24T23:39:34.484Z,14.87
2018-02-24T23:42:03.496Z,16.48
2018-02-24T23:44:33.260Z,14.52
2018-02-24T23:47:02.316Z,16.85
2018-02-24T23:49:31.972Z,17.65
2018-02-24T23:52:00.859Z,14.93
2018-02-24T23:54:29.982Z,15.82
2018-02-24T23:56:59.683Z,14.20
2018-02-24T23:59:28.724Z,12.18
